sensor_id;sensor_type;location;lat;lon;timestamp;pressure;altitude;pressure_sealevel;temperature;humidity
45071;BME280;30836;48.906;9.140;2023-06-26T00:00:30;985.19;;;29.17;30.12
45071;BME280;30836;48.906;9.140;2023-06-26T00:01:30;985.21;;;29.06;30.30
45071;BME280;30836;48.906;9.140;2023-06-26T00:02:31;985.23;;;28.96;30.34
45071;BME280;30836;48.906;9.140;2023-06-26T00:03:32;985.19;;;28.89;30.38
45071;BME280;30836;48.906;9.140;2023-06-26T00:04:32;985.21;;;28.81;30.69
45071;BME280;30836;48.906;9.140;2023-06-26T00:05:32;985.21;;;28.71;30.75
45071;BME280;30836;48.906;9.140;2023-06-26T00:06:33;985.21;;;28.65;30.93
45071;BME280;30836;48.906;9.140;2023-06-26T00:07:33;985.23;;;28.61;30.80
45071;BME280;30836;48.906;9.140;2023-06-26T00:08:34;985.19;;;28.59;30.72
45071;BME280;30836;48.906;9.140;2023-06-26T00:09:34;985.21;;;28.58;30.73
45071;BME280;30836;48.906;9.140;2023-06-26T00:10:35;985.21;;;28.57;30.82
45071;BME280;30836;48.906;9.140;2023-06-26T00:11:35;985.21;;;28.56;30.80
45071;BME280;30836;48.906;9.140;2023-06-26T00:12:36;985.19;;;28.56;30.81
45071;BME280;30836;48.906;9.140;2023-06-26T00:13:36;985.21;;;28.57;30.86
45071;BME280;30836;48.906;9.140;2023-06-26T00:14:36;985.19;;;28.58;30.82
45071;BME280;30836;48.906;9.140;2023-06-26T00:15:37;985.23;;;28.59;30.85
45071;BME280;30836;48.906;9.140;2023-06-26T00:16:37;985.21;;;28.61;30.89
45071;BME280;30836;48.906;9.140;2023-06-26T00:17:38;985.23;;;28.63;30.97
45071;BME280;30836;48.906;9.140;2023-06-26T00:18:38;985.23;;;28.62;30.96
45071;BME280;30836;48.906;9.140;2023-06-26T00:19:39;985.25;;;28.61;30.95
45071;BME280;30836;48.906;9.140;2023-06-26T00:20:39;985.25;;;28.63;30.90
45071;BME280;30836;48.906;9.140;2023-06-26T00:21:40;985.23;;;28.65;30.83
45071;BME280;30836;48.906;9.140;2023-06-26T00:22:40;985.21;;;28.68;30.77
45071;BME280;30836;48.906;9.140;2023-06-26T00:23:40;985.21;;;28.70;30.90
45071;BME280;30836;48.906;9.140;2023-06-26T00:24:41;985.21;;;28.71;30.81
45071;BME280;30836;48.906;9.140;2023-06-26T00:25:42;985.21;;;28.72;30.91
45071;BME280;30836;48.906;9.140;2023-06-26T00:26:46;985.19;;;28.73;30.90
45071;BME280;30836;48.906;9.140;2023-06-26T00:27:47;985.21;;;28.78;30.72
45071;BME280;30836;48.906;9.140;2023-06-26T00:28:48;985.21;;;28.90;30.42
45071;BME280;30836;48.906;9.140;2023-06-26T00:29:48;985.23;;;29.06;30.23
45071;BME280;30836;48.906;9.140;2023-06-26T00:30:48;985.27;;;29.21;30.03
45071;BME280;30836;48.906;9.140;2023-06-26T00:31:49;985.25;;;29.35;29.92
45071;BME280;30836;48.906;9.140;2023-06-26T00:32:49;985.25;;;29.48;29.72
45071;BME280;30836;48.906;9.140;2023-06-26T00:33:50;985.27;;;29.59;29.65
45071;BME280;30836;48.906;9.140;2023-06-26T00:34:50;985.27;;;29.69;29.56
45071;BME280;30836;48.906;9.140;2023-06-26T00:35:51;985.27;;;29.76;29.61
45071;BME280;30836;48.906;9.140;2023-06-26T00:36:51;985.27;;;29.81;29.50
45071;BME280;30836;48.906;9.140;2023-06-26T00:37:51;985.23;;;29.80;29.69
45071;BME280;30836;48.906;9.140;2023-06-26T00:38:52;985.23;;;29.72;29.90
45071;BME280;30836;48.906;9.140;2023-06-26T00:39:52;985.21;;;29.61;30.08
45071;BME280;30836;48.906;9.140;2023-06-26T00:40:53;985.23;;;29.51;30.19
45071;BME280;30836;48.906;9.140;2023-06-26T00:41:53;985.19;;;29.42;30.34
45071;BME280;30836;48.906;9.140;2023-06-26T00:42:54;985.19;;;29.35;30.44
45071;BME280;30836;48.906;9.140;2023-06-26T00:43:54;985.17;;;29.28;30.57
45071;BME280;30836;48.906;9.140;2023-06-26T00:44:54;985.17;;;29.23;30.63
45071;BME280;30836;48.906;9.140;2023-06-26T00:45:55;985.13;;;29.17;30.78
45071;BME280;30836;48.906;9.140;2023-06-26T00:46:55;985.13;;;29.14;30.78
45071;BME280;30836;48.906;9.140;2023-06-26T00:47:56;985.13;;;29.14;30.80
45071;BME280;30836;48.906;9.140;2023-06-26T00:48:56;985.15;;;29.12;30.81
45071;BME280;30836;48.906;9.140;2023-06-26T00:49:59;985.13;;;29.11;30.92
45071;BME280;30836;48.906;9.140;2023-06-26T00:50:59;985.15;;;29.08;30.95
45071;BME280;30836;48.906;9.140;2023-06-26T00:52:00;985.15;;;29.05;31.04
45071;BME280;30836;48.906;9.140;2023-06-26T00:53:00;985.15;;;29.03;31.16
45071;BME280;30836;48.906;9.140;2023-06-26T00:53:10;985.15;;;28.98;31.18
45071;BME280;30836;48.906;9.140;2023-06-26T00:54:12;985.17;;;29.01;31.14
45071;BME280;30836;48.906;9.140;2023-06-26T00:55:12;985.17;;;29.04;31.42
45071;BME280;30836;48.906;9.140;2023-06-26T00:56:14;985.17;;;29.05;31.47
45071;BME280;30836;48.906;9.140;2023-06-26T00:57:15;985.19;;;29.04;31.57
45071;BME280;30836;48.906;9.140;2023-06-26T00:58:15;985.17;;;29.02;31.49
45071;BME280;30836;48.906;9.140;2023-06-26T00:59:16;985.19;;;28.98;31.59
45071;BME280;30836;48.906;9.140;2023-06-26T01:00:16;985.17;;;28.93;31.67
45071;BME280;30836;48.906;9.140;2023-06-26T01:01:17;985.15;;;28.88;31.65
45071;BME280;30836;48.906;9.140;2023-06-26T01:02:17;985.15;;;28.84;31.78
45071;BME280;30836;48.906;9.140;2023-06-26T01:03:18;985.13;;;28.80;31.83
45071;BME280;30836;48.906;9.140;2023-06-26T01:04:20;985.09;;;28.75;31.75
45071;BME280;30836;48.906;9.140;2023-06-26T01:05:20;985.09;;;28.70;31.85
45071;BME280;30836;48.906;9.140;2023-06-26T01:06:22;985.11;;;28.65;31.99
45071;BME280;30836;48.906;9.140;2023-06-26T01:07:24;985.09;;;28.60;32.08
45071;BME280;30836;48.906;9.140;2023-06-26T01:08:25;985.11;;;28.55;32.24
45071;BME280;30836;48.906;9.140;2023-06-26T01:09:27;985.13;;;28.50;32.38
45071;BME280;30836;48.906;9.140;2023-06-26T01:09:37;985.11;;;28.42;32.36
45071;BME280;30836;48.906;9.140;2023-06-26T01:10:37;985.11;;;28.44;32.25
45071;BME280;30836;48.906;9.140;2023-06-26T01:11:38;985.11;;;28.44;32.32
45071;BME280;30836;48.906;9.140;2023-06-26T01:12:38;985.13;;;28.43;32.38
45071;BME280;30836;48.906;9.140;2023-06-26T01:13:39;985.13;;;28.41;32.38
45071;BME280;30836;48.906;9.140;2023-06-26T01:14:42;985.13;;;28.40;32.42
45071;BME280;30836;48.906;9.140;2023-06-26T01:15:42;985.13;;;28.46;32.07
45071;BME280;30836;48.906;9.140;2023-06-26T01:16:43;985.13;;;28.57;31.76
45071;BME280;30836;48.906;9.140;2023-06-26T01:17:45;985.13;;;28.69;31.54
45071;BME280;30836;48.906;9.140;2023-06-26T01:18:46;985.11;;;28.80;31.39
45071;BME280;30836;48.906;9.140;2023-06-26T01:19:48;985.11;;;28.91;31.33
45071;BME280;30836;48.906;9.140;2023-06-26T01:21:05;985.11;;;29.04;31.28
45071;BME280;30836;48.906;9.140;2023-06-26T01:24:22;985.09;;;28.69;32.04
45071;BME280;30836;48.906;9.140;2023-06-26T01:25:35;985.09;;;28.58;32.19
45071;BME280;30836;48.906;9.140;2023-06-26T01:26:41;985.09;;;28.49;32.28
45071;BME280;30836;48.906;9.140;2023-06-26T01:27:45;985.07;;;28.42;32.55
45071;BME280;30836;48.906;9.140;2023-06-26T01:28:51;985.07;;;28.36;32.77
45071;BME280;30836;48.906;9.140;2023-06-26T01:29:53;985.05;;;28.39;32.37
45071;BME280;30836;48.906;9.140;2023-06-26T01:30:55;985.05;;;28.50;32.13
45071;BME280;30836;48.906;9.140;2023-06-26T01:31:56;985.03;;;28.61;31.94
45071;BME280;30836;48.906;9.140;2023-06-26T01:32:56;985.05;;;28.71;31.82
45071;BME280;30836;48.906;9.140;2023-06-26T01:33:59;985.03;;;28.80;32.00
45071;BME280;30836;48.906;9.140;2023-06-26T01:35:01;985.05;;;28.86;31.97
45071;BME280;30836;48.906;9.140;2023-06-26T01:36:02;985.03;;;28.90;31.88
45071;BME280;30836;48.906;9.140;2023-06-26T01:37:03;985.01;;;28.94;31.90
45071;BME280;30836;48.906;9.140;2023-06-26T01:38:22;984.97;;;28.98;31.64
45071;BME280;30836;48.906;9.140;2023-06-26T01:39:17;984.97;;;29.01;31.63
45071;BME280;30836;48.906;9.140;2023-06-26T01:40:19;984.97;;;29.04;31.68
45071;BME280;30836;48.906;9.140;2023-06-26T01:41:19;984.95;;;29.06;31.71
45071;BME280;30836;48.906;9.140;2023-06-26T01:42:20;984.97;;;29.06;31.81
45071;BME280;30836;48.906;9.140;2023-06-26T01:44:28;984.93;;;29.06;31.67
45071;BME280;30836;48.906;9.140;2023-06-26T01:45:30;984.97;;;29.05;31.71
45071;BME280;30836;48.906;9.140;2023-06-26T01:46:36;984.99;;;29.03;31.74
45071;BME280;30836;48.906;9.140;2023-06-26T01:47:40;984.95;;;29.01;31.78
45071;BME280;30836;48.906;9.140;2023-06-26T01:51:07;984.91;;;28.91;32.02
45071;BME280;30836;48.906;9.140;2023-06-26T01:53:19;984.91;;;28.80;32.05
45071;BME280;30836;48.906;9.140;2023-06-26T01:54:24;984.89;;;28.76;32.25
45071;BME280;30836;48.906;9.140;2023-06-26T01:56:39;984.89;;;28.68;32.39
45071;BME280;30836;48.906;9.140;2023-06-26T01:57:41;984.89;;;28.64;32.46
45071;BME280;30836;48.906;9.140;2023-06-26T01:58:43;984.89;;;28.61;32.49
45071;BME280;30836;48.906;9.140;2023-06-26T01:59:46;984.85;;;28.58;32.65
45071;BME280;30836;48.906;9.140;2023-06-26T01:59:57;984.89;;;28.53;32.62
45071;BME280;30836;48.906;9.140;2023-06-26T02:00:58;984.89;;;28.51;32.79
45071;BME280;30836;48.906;9.140;2023-06-26T02:02:00;984.89;;;28.41;33.08
45071;BME280;30836;48.906;9.140;2023-06-26T02:03:01;984.85;;;28.25;33.26
45071;BME280;30836;48.906;9.140;2023-06-26T02:04:01;984.87;;;28.08;33.51
45071;BME280;30836;48.906;9.140;2023-06-26T02:05:02;984.89;;;27.92;33.85
45071;BME280;30836;48.906;9.140;2023-06-26T02:06:02;984.89;;;27.78;33.86
45071;BME280;30836;48.906;9.140;2023-06-26T02:07:03;984.87;;;27.66;34.07
45071;BME280;30836;48.906;9.140;2023-06-26T02:08:04;984.91;;;27.55;34.30
45071;BME280;30836;48.906;9.140;2023-06-26T02:09:05;984.89;;;27.45;34.45
45071;BME280;30836;48.906;9.140;2023-06-26T02:10:05;984.87;;;27.37;34.63
45071;BME280;30836;48.906;9.140;2023-06-26T02:11:06;984.87;;;27.31;34.69
45071;BME280;30836;48.906;9.140;2023-06-26T02:12:07;984.91;;;27.26;34.76
45071;BME280;30836;48.906;9.140;2023-06-26T02:13:08;984.93;;;27.23;34.82
45071;BME280;30836;48.906;9.140;2023-06-26T02:14:08;984.93;;;27.21;34.96
45071;BME280;30836;48.906;9.140;2023-06-26T02:15:09;984.89;;;27.20;34.93
45071;BME280;30836;48.906;9.140;2023-06-26T02:16:09;984.89;;;27.20;34.93
45071;BME280;30836;48.906;9.140;2023-06-26T02:17:10;984.93;;;27.20;34.87
45071;BME280;30836;48.906;9.140;2023-06-26T02:18:10;984.95;;;27.21;34.87
45071;BME280;30836;48.906;9.140;2023-06-26T02:19:11;984.95;;;27.21;34.91
45071;BME280;30836;48.906;9.140;2023-06-26T02:20:11;984.91;;;27.20;34.94
45071;BME280;30836;48.906;9.140;2023-06-26T02:21:12;984.91;;;27.19;35.13
45071;BME280;30836;48.906;9.140;2023-06-26T02:22:14;984.93;;;27.15;35.20
45071;BME280;30836;48.906;9.140;2023-06-26T02:23:14;984.93;;;27.13;35.20
45071;BME280;30836;48.906;9.140;2023-06-26T02:24:15;984.93;;;27.12;35.21
45071;BME280;30836;48.906;9.140;2023-06-26T02:25:17;984.95;;;27.10;35.23
45071;BME280;30836;48.906;9.140;2023-06-26T02:26:18;984.91;;;27.07;35.31
45071;BME280;30836;48.906;9.140;2023-06-26T02:27:18;984.91;;;27.03;35.67
45071;BME280;30836;48.906;9.140;2023-06-26T02:28:19;984.91;;;26.97;35.68
45071;BME280;30836;48.906;9.140;2023-06-26T02:29:19;984.89;;;26.93;35.80
45071;BME280;30836;48.906;9.140;2023-06-26T02:30:19;984.89;;;26.89;35.90
45071;BME280;30836;48.906;9.140;2023-06-26T02:31:20;984.89;;;26.86;35.91
45071;BME280;30836;48.906;9.140;2023-06-26T02:32:20;984.89;;;26.83;35.99
45071;BME280;30836;48.906;9.140;2023-06-26T02:33:21;984.91;;;26.81;35.88
45071;BME280;30836;48.906;9.140;2023-06-26T02:34:21;984.91;;;26.80;36.05
45071;BME280;30836;48.906;9.140;2023-06-26T02:35:22;984.91;;;26.79;36.06
45071;BME280;30836;48.906;9.140;2023-06-26T02:35:32;984.89;;;26.75;36.05
45071;BME280;30836;48.906;9.140;2023-06-26T02:36:32;984.91;;;26.78;36.10
45071;BME280;30836;48.906;9.140;2023-06-26T02:37:32;984.91;;;26.80;36.05
45071;BME280;30836;48.906;9.140;2023-06-26T02:38:33;984.93;;;26.81;36.09
45071;BME280;30836;48.906;9.140;2023-06-26T02:39:34;984.93;;;26.81;36.18
45071;BME280;30836;48.906;9.140;2023-06-26T02:40:34;984.93;;;26.80;36.22
45071;BME280;30836;48.906;9.140;2023-06-26T02:41:35;984.97;;;26.79;36.15
45071;BME280;30836;48.906;9.140;2023-06-26T02:42:35;984.93;;;26.78;36.23
45071;BME280;30836;48.906;9.140;2023-06-26T02:43:36;984.93;;;26.76;36.25
45071;BME280;30836;48.906;9.140;2023-06-26T02:44:36;984.93;;;26.75;36.22
45071;BME280;30836;48.906;9.140;2023-06-26T02:45:36;984.95;;;26.73;36.24
45071;BME280;30836;48.906;9.140;2023-06-26T02:46:37;984.95;;;26.71;36.31
45071;BME280;30836;48.906;9.140;2023-06-26T02:47:38;984.95;;;26.69;36.42
45071;BME280;30836;48.906;9.140;2023-06-26T02:48:38;984.97;;;26.68;36.31
45071;BME280;30836;48.906;9.140;2023-06-26T02:49:38;984.95;;;26.67;36.34
45071;BME280;30836;48.906;9.140;2023-06-26T02:50:39;984.97;;;26.65;36.41
45071;BME280;30836;48.906;9.140;2023-06-26T02:51:39;984.93;;;26.64;36.38
45071;BME280;30836;48.906;9.140;2023-06-26T02:52:40;984.93;;;26.62;36.51
45071;BME280;30836;48.906;9.140;2023-06-26T02:53:40;984.93;;;26.60;36.53
45071;BME280;30836;48.906;9.140;2023-06-26T02:54:41;984.91;;;26.58;36.50
45071;BME280;30836;48.906;9.140;2023-06-26T02:55:41;984.93;;;26.58;36.47
45071;BME280;30836;48.906;9.140;2023-06-26T02:56:41;984.93;;;26.57;36.45
45071;BME280;30836;48.906;9.140;2023-06-26T02:57:42;984.93;;;26.58;36.49
45071;BME280;30836;48.906;9.140;2023-06-26T02:58:42;984.93;;;26.57;36.50
45071;BME280;30836;48.906;9.140;2023-06-26T02:59:43;984.91;;;26.56;36.53
45071;BME280;30836;48.906;9.140;2023-06-26T03:00:44;984.93;;;26.55;36.63
45071;BME280;30836;48.906;9.140;2023-06-26T03:01:44;984.91;;;26.54;36.66
45071;BME280;30836;48.906;9.140;2023-06-26T03:02:45;984.89;;;26.54;36.70
45071;BME280;30836;48.906;9.140;2023-06-26T03:03:45;984.91;;;26.55;36.66
45071;BME280;30836;48.906;9.140;2023-06-26T03:04:46;984.89;;;26.55;36.65
45071;BME280;30836;48.906;9.140;2023-06-26T03:05:46;984.91;;;26.56;36.62
45071;BME280;30836;48.906;9.140;2023-06-26T03:06:47;984.91;;;26.56;36.56
45071;BME280;30836;48.906;9.140;2023-06-26T03:07:47;984.95;;;26.57;36.49
45071;BME280;30836;48.906;9.140;2023-06-26T03:08:48;984.91;;;26.59;36.45
45071;BME280;30836;48.906;9.140;2023-06-26T03:09:48;984.93;;;26.61;36.43
45071;BME280;30836;48.906;9.140;2023-06-26T03:10:49;984.93;;;26.62;36.35
45071;BME280;30836;48.906;9.140;2023-06-26T03:11:49;984.93;;;26.63;36.37
45071;BME280;30836;48.906;9.140;2023-06-26T03:12:49;984.93;;;26.64;36.35
45071;BME280;30836;48.906;9.140;2023-06-26T03:13:50;984.97;;;26.65;36.43
45071;BME280;30836;48.906;9.140;2023-06-26T03:14:50;984.95;;;26.65;36.41
45071;BME280;30836;48.906;9.140;2023-06-26T03:15:51;984.97;;;26.66;36.37
45071;BME280;30836;48.906;9.140;2023-06-26T03:16:51;984.95;;;26.66;36.33
45071;BME280;30836;48.906;9.140;2023-06-26T03:17:52;984.93;;;26.66;36.38
45071;BME280;30836;48.906;9.140;2023-06-26T03:18:53;984.93;;;26.66;36.42
45071;BME280;30836;48.906;9.140;2023-06-26T03:19:53;984.95;;;26.65;36.47
45071;BME280;30836;48.906;9.140;2023-06-26T03:20:54;984.97;;;26.65;36.39
45071;BME280;30836;48.906;9.140;2023-06-26T03:21:56;984.91;;;26.64;36.38
45071;BME280;30836;48.906;9.140;2023-06-26T03:22:56;984.91;;;26.63;36.40
45071;BME280;30836;48.906;9.140;2023-06-26T03:23:57;984.93;;;26.61;36.46
45071;BME280;30836;48.906;9.140;2023-06-26T03:24:57;984.95;;;26.59;36.52
45071;BME280;30836;48.906;9.140;2023-06-26T03:25:57;984.95;;;26.58;36.55
45071;BME280;30836;48.906;9.140;2023-06-26T03:26:58;984.95;;;26.57;36.57
45071;BME280;30836;48.906;9.140;2023-06-26T03:27:58;984.95;;;26.57;36.53
45071;BME280;30836;48.906;9.140;2023-06-26T03:28:59;984.93;;;26.57;36.50
45071;BME280;30836;48.906;9.140;2023-06-26T03:29:59;984.97;;;26.56;36.49
45071;BME280;30836;48.906;9.140;2023-06-26T03:31:00;984.97;;;26.54;36.58
45071;BME280;30836;48.906;9.140;2023-06-26T03:32:00;984.95;;;26.51;36.61
45071;BME280;30836;48.906;9.140;2023-06-26T03:33:01;984.97;;;26.49;36.63
45071;BME280;30836;48.906;9.140;2023-06-26T03:34:01;984.99;;;26.46;36.83
45071;BME280;30836;48.906;9.140;2023-06-26T03:35:01;984.99;;;26.42;36.92
45071;BME280;30836;48.906;9.140;2023-06-26T03:36:02;985.01;;;26.40;36.88
45071;BME280;30836;48.906;9.140;2023-06-26T03:37:03;984.99;;;26.39;36.82
45071;BME280;30836;48.906;9.140;2023-06-26T03:38:04;985.01;;;26.41;36.73
45071;BME280;30836;48.906;9.140;2023-06-26T03:39:04;985.01;;;26.41;36.72
45071;BME280;30836;48.906;9.140;2023-06-26T03:40:05;985.03;;;26.43;36.63
45071;BME280;30836;48.906;9.140;2023-06-26T03:41:06;984.99;;;26.46;36.65
45071;BME280;30836;48.906;9.140;2023-06-26T03:42:06;985.03;;;26.49;36.60
45071;BME280;30836;48.906;9.140;2023-06-26T03:43:07;985.03;;;26.52;36.58
45071;BME280;30836;48.906;9.140;2023-06-26T03:44:07;985.01;;;26.54;36.58
45071;BME280;30836;48.906;9.140;2023-06-26T03:45:08;985.03;;;26.58;36.56
45071;BME280;30836;48.906;9.140;2023-06-26T03:46:08;985.05;;;26.63;36.40
45071;BME280;30836;48.906;9.140;2023-06-26T03:47:09;985.03;;;26.67;36.36
45071;BME280;30836;48.906;9.140;2023-06-26T03:48:09;985.05;;;26.68;36.32
45071;BME280;30836;48.906;9.140;2023-06-26T03:49:10;985.05;;;26.67;36.44
45071;BME280;30836;48.906;9.140;2023-06-26T03:50:10;985.07;;;26.65;36.51
45071;BME280;30836;48.906;9.140;2023-06-26T03:51:11;985.01;;;26.64;36.49
45071;BME280;30836;48.906;9.140;2023-06-26T03:52:11;985.03;;;26.63;36.56
45071;BME280;30836;48.906;9.140;2023-06-26T03:53:12;985.03;;;26.63;36.53
45071;BME280;30836;48.906;9.140;2023-06-26T03:54:12;985.05;;;26.63;36.56
45071;BME280;30836;48.906;9.140;2023-06-26T03:55:13;985.07;;;26.64;36.45
45071;BME280;30836;48.906;9.140;2023-06-26T03:56:13;985.05;;;26.66;36.22
45071;BME280;30836;48.906;9.140;2023-06-26T03:57:14;985.05;;;26.67;36.40
45071;BME280;30836;48.906;9.140;2023-06-26T03:58:14;985.07;;;26.69;36.50
45071;BME280;30836;48.906;9.140;2023-06-26T03:59:15;985.07;;;26.71;36.46
45071;BME280;30836;48.906;9.140;2023-06-26T04:00:15;985.07;;;26.73;36.40
45071;BME280;30836;48.906;9.140;2023-06-26T04:01:16;985.07;;;26.75;36.31
45071;BME280;30836;48.906;9.140;2023-06-26T04:02:16;985.09;;;26.76;36.36
45071;BME280;30836;48.906;9.140;2023-06-26T04:03:17;985.09;;;26.77;36.35
45071;BME280;30836;48.906;9.140;2023-06-26T04:04:17;985.07;;;26.77;36.35
45071;BME280;30836;48.906;9.140;2023-06-26T04:05:18;985.11;;;26.78;36.37
45071;BME280;30836;48.906;9.140;2023-06-26T04:06:18;985.11;;;26.80;36.26
45071;BME280;30836;48.906;9.140;2023-06-26T04:07:19;985.11;;;26.82;36.22
45071;BME280;30836;48.906;9.140;2023-06-26T04:08:19;985.11;;;26.84;36.13
45071;BME280;30836;48.906;9.140;2023-06-26T04:09:20;985.09;;;26.85;36.12
45071;BME280;30836;48.906;9.140;2023-06-26T04:10:20;985.09;;;26.86;36.10
45071;BME280;30836;48.906;9.140;2023-06-26T04:11:21;985.07;;;26.88;35.97
45071;BME280;30836;48.906;9.140;2023-06-26T04:12:21;985.09;;;26.90;35.94
45071;BME280;30836;48.906;9.140;2023-06-26T04:13:21;985.09;;;26.91;35.85
45071;BME280;30836;48.906;9.140;2023-06-26T04:14:22;985.07;;;26.94;35.87
45071;BME280;30836;48.906;9.140;2023-06-26T04:15:22;985.09;;;26.97;35.76
45071;BME280;30836;48.906;9.140;2023-06-26T04:16:23;985.09;;;27.01;35.63
45071;BME280;30836;48.906;9.140;2023-06-26T04:17:23;985.13;;;27.06;35.67
45071;BME280;30836;48.906;9.140;2023-06-26T04:18:24;985.13;;;27.11;35.75
45071;BME280;30836;48.906;9.140;2023-06-26T04:19:24;985.15;;;27.15;35.64
45071;BME280;30836;48.906;9.140;2023-06-26T04:20:24;985.17;;;27.20;35.46
45071;BME280;30836;48.906;9.140;2023-06-26T04:21:25;985.17;;;27.24;35.44
45071;BME280;30836;48.906;9.140;2023-06-26T04:22:25;985.15;;;27.27;35.29
45071;BME280;30836;48.906;9.140;2023-06-26T04:23:26;985.17;;;27.30;35.25
45071;BME280;30836;48.906;9.140;2023-06-26T04:24:26;985.17;;;27.34;35.17
45071;BME280;30836;48.906;9.140;2023-06-26T04:25:27;985.17;;;27.36;35.21
45071;BME280;30836;48.906;9.140;2023-06-26T04:26:27;985.17;;;27.39;35.18
45071;BME280;30836;48.906;9.140;2023-06-26T04:27:28;985.17;;;27.43;34.99
45071;BME280;30836;48.906;9.140;2023-06-26T04:28:28;985.21;;;27.47;35.00
45071;BME280;30836;48.906;9.140;2023-06-26T04:29:29;985.19;;;27.53;34.90
45071;BME280;30836;48.906;9.140;2023-06-26T04:30:29;985.23;;;27.60;34.71
45071;BME280;30836;48.906;9.140;2023-06-26T04:31:30;985.21;;;27.67;34.74
45071;BME280;30836;48.906;9.140;2023-06-26T04:32:30;985.19;;;27.71;34.68
45071;BME280;30836;48.906;9.140;2023-06-26T04:33:30;985.23;;;27.74;34.61
45071;BME280;30836;48.906;9.140;2023-06-26T04:34:31;985.19;;;27.77;34.68
45071;BME280;30836;48.906;9.140;2023-06-26T04:35:31;985.19;;;27.77;34.90
45071;BME280;30836;48.906;9.140;2023-06-26T04:36:32;985.21;;;27.78;34.93
45071;BME280;30836;48.906;9.140;2023-06-26T04:37:33;985.19;;;27.81;34.74
45071;BME280;30836;48.906;9.140;2023-06-26T04:38:34;985.19;;;27.87;34.64
45071;BME280;30836;48.906;9.140;2023-06-26T04:39:35;985.17;;;27.93;34.50
45071;BME280;30836;48.906;9.140;2023-06-26T04:40:36;985.17;;;27.98;34.48
45071;BME280;30836;48.906;9.140;2023-06-26T04:41:36;985.15;;;28.01;34.51
45071;BME280;30836;48.906;9.140;2023-06-26T04:42:37;985.15;;;28.04;34.23
45071;BME280;30836;48.906;9.140;2023-06-26T04:43:38;985.15;;;28.07;34.13
45071;BME280;30836;48.906;9.140;2023-06-26T04:44:38;985.15;;;28.11;34.09
45071;BME280;30836;48.906;9.140;2023-06-26T04:45:39;985.11;;;28.15;34.04
45071;BME280;30836;48.906;9.140;2023-06-26T04:46:39;985.15;;;28.18;33.97
45071;BME280;30836;48.906;9.140;2023-06-26T04:47:39;985.13;;;28.20;33.76
45071;BME280;30836;48.906;9.140;2023-06-26T04:48:40;985.15;;;28.21;33.74
45071;BME280;30836;48.906;9.140;2023-06-26T04:49:41;985.15;;;28.21;33.84
45071;BME280;30836;48.906;9.140;2023-06-26T04:50:41;985.15;;;28.23;33.77
45071;BME280;30836;48.906;9.140;2023-06-26T04:51:42;985.13;;;28.24;33.71
45071;BME280;30836;48.906;9.140;2023-06-26T04:52:43;985.15;;;28.26;33.62
45071;BME280;30836;48.906;9.140;2023-06-26T04:53:43;985.11;;;28.28;33.52
45071;BME280;30836;48.906;9.140;2023-06-26T04:54:43;985.13;;;28.30;33.49
45071;BME280;30836;48.906;9.140;2023-06-26T04:55:44;985.15;;;28.32;33.37
45071;BME280;30836;48.906;9.140;2023-06-26T04:56:44;985.17;;;28.36;33.21
45071;BME280;30836;48.906;9.140;2023-06-26T04:57:45;985.13;;;28.40;33.13
45071;BME280;30836;48.906;9.140;2023-06-26T04:58:45;985.15;;;28.44;33.04
45071;BME280;30836;48.906;9.140;2023-06-26T04:59:46;985.11;;;28.47;32.86
45071;BME280;30836;48.906;9.140;2023-06-26T05:00:46;985.09;;;28.51;32.84
45071;BME280;30836;48.906;9.140;2023-06-26T05:01:47;985.09;;;28.55;32.78
45071;BME280;30836;48.906;9.140;2023-06-26T05:02:47;985.09;;;28.59;32.76
45071;BME280;30836;48.906;9.140;2023-06-26T05:03:48;985.07;;;28.62;32.72
45071;BME280;30836;48.906;9.140;2023-06-26T05:04:48;985.05;;;28.65;32.63
45071;BME280;30836;48.906;9.140;2023-06-26T05:05:49;985.07;;;28.68;32.59
45071;BME280;30836;48.906;9.140;2023-06-26T05:06:49;985.07;;;28.71;32.59
45071;BME280;30836;48.906;9.140;2023-06-26T05:07:52;985.05;;;28.72;32.47
45071;BME280;30836;48.906;9.140;2023-06-26T05:08:53;985.09;;;28.73;32.54
45071;BME280;30836;48.906;9.140;2023-06-26T05:09:53;985.07;;;28.76;32.45
45071;BME280;30836;48.906;9.140;2023-06-26T05:10:53;985.07;;;28.78;32.38
45071;BME280;30836;48.906;9.140;2023-06-26T05:11:54;985.09;;;28.80;32.38
45071;BME280;30836;48.906;9.140;2023-06-26T05:12:54;985.07;;;28.83;32.34
45071;BME280;30836;48.906;9.140;2023-06-26T05:13:55;985.09;;;28.87;32.35
45071;BME280;30836;48.906;9.140;2023-06-26T05:14:55;985.07;;;28.92;32.25
45071;BME280;30836;48.906;9.140;2023-06-26T05:15:56;985.07;;;28.97;32.26
45071;BME280;30836;48.906;9.140;2023-06-26T05:16:56;985.09;;;29.00;32.28
45071;BME280;30836;48.906;9.140;2023-06-26T05:17:56;985.11;;;29.02;32.33
45071;BME280;30836;48.906;9.140;2023-06-26T05:18:57;985.13;;;29.03;32.33
45071;BME280;30836;48.906;9.140;2023-06-26T05:19:57;985.11;;;29.04;32.22
45071;BME280;30836;48.906;9.140;2023-06-26T05:20:58;985.13;;;29.06;32.25
45071;BME280;30836;48.906;9.140;2023-06-26T05:21:59;985.09;;;29.09;32.22
45071;BME280;30836;48.906;9.140;2023-06-26T05:23:01;985.13;;;29.15;32.06
45071;BME280;30836;48.906;9.140;2023-06-26T05:24:03;985.13;;;29.28;31.67
45071;BME280;30836;48.906;9.140;2023-06-26T05:25:04;985.17;;;29.46;31.39
45071;BME280;30836;48.906;9.140;2023-06-26T05:26:05;985.15;;;29.66;31.23
45071;BME280;30836;48.906;9.140;2023-06-26T05:27:06;985.19;;;29.84;31.00
45071;BME280;30836;48.906;9.140;2023-06-26T05:28:07;985.19;;;29.99;30.75
45071;BME280;30836;48.906;9.140;2023-06-26T05:29:08;985.19;;;30.12;30.68
45071;BME280;30836;48.906;9.140;2023-06-26T05:30:09;985.21;;;30.24;30.33
45071;BME280;30836;48.906;9.140;2023-06-26T05:31:10;985.19;;;30.35;30.15
45071;BME280;30836;48.906;9.140;2023-06-26T05:32:11;985.23;;;30.44;30.04
45071;BME280;30836;48.906;9.140;2023-06-26T05:33:15;985.25;;;30.54;29.93
45071;BME280;30836;48.906;9.140;2023-06-26T05:34:18;985.23;;;30.63;29.91
45071;BME280;30836;48.906;9.140;2023-06-26T05:35:20;985.29;;;30.72;30.03
45071;BME280;30836;48.906;9.140;2023-06-26T05:36:21;985.27;;;30.79;29.85